Time;durP1;ratioP1;P1;durP2;ratioP2;P2;SDS_P1;SDS_P2;PMS_P1;PMS_P2;Temp;Humidity;BMP_temperature;BMP_pressure;BME280_temperature;BME280_humidity;BME280_pressure;Samples;Min_cycle;Max_cycle;Signal;HPM_P1;HPM_P2
2022/05/18 00:00:00;;;;;;;0.6;0.6;;;;;;;20.6;100.0;101570;;;;
2022/05/18 00:01:00;;;;;;;0.6;0.6;;;;;;;20.6;100.0;101580;;;;
2022/05/18 00:02:00;;;;;;;0.6;0.6;;;;;;;20.6;100.0;101580;;;;
2022/05/18 00:03:04;;;;;;;0.4;0.4;;;;;;;20.5;100.0;101580;;;;
2022/05/18 00:04:00;;;;;;;0.4;0.4;;;;;;;20.5;100.0;101580;;;;
2022/05/18 00:05:00;;;;;;;0.4;0.4;;;;;;;20.5;100.0;101580;;;;
2022/05/18 00:06:00;;;;;;;0.4;0.4;;;;;;;20.5;100.0;101580;;;;
2022/05/18 00:07:00;;;;;;;0.4;0.4;;;;;;;20.5;100.0;101580;;;;
2022/05/18 00:08:00;;;;;;;0.4;0.4;;;;;;;20.5;100.0;101580;;;;
2022/05/18 00:09:00;;;;;;;0.4;0.4;;;;;;;20.5;100.0;101580;;;;
2022/05/18 00:10:00;;;;;;;0.4;0.4;;;;;;;20.5;100.0;101580;;;;
2022/05/18 00:11:00;;;;;;;0.4;0.4;;;;;;;20.5;100.0;101590;;;;
2022/05/18 00:12:00;;;;;;;0.4;0.4;;;;;;;20.5;100.0;101590;;;;
2022/05/18 00:13:00;;;;;;;0.4;0.4;;;;;;;20.4;100.0;101590;;;;
2022/05/18 00:14:00;;;;;;;0.4;0.4;;;;;;;20.4;100.0;101590;;;;
2022/05/18 00:15:00;;;;;;;0.4;0.4;;;;;;;20.4;100.0;101590;;;;
2022/05/18 00:16:00;;;;;;;0.4;0.4;;;;;;;20.4;100.0;101590;;;;
2022/05/18 00:17:03;;;;;;;0.4;0.4;;;;;;;20.4;100.0;101590;;;;
2022/05/18 00:18:00;;;;;;;0.4;0.4;;;;;;;20.4;100.0;101590;;;;
2022/05/18 00:19:00;;;;;;;0.4;0.4;;;;;;;20.3;100.0;101590;;;;
2022/05/18 00:20:00;;;;;;;0.4;0.4;;;;;;;20.3;100.0;101590;;;;
2022/05/18 00:21:00;;;;;;;0.4;0.4;;;;;;;20.3;100.0;101590;;;;
2022/05/18 00:22:00;;;;;;;0.4;0.4;;;;;;;20.3;100.0;101590;;;;
2022/05/18 00:23:01;;;;;;;0.2;0.2;;;;;;;20.3;100.0;101590;;;;
2022/05/18 00:24:00;;;;;;;0.2;0.2;;;;;;;20.3;100.0;101590;;;;
2022/05/18 00:25:01;;;;;;;0.2;0.2;;;;;;;20.3;100.0;101590;;;;
2022/05/18 00:26:00;;;;;;;0.2;0.2;;;;;;;20.3;100.0;101590;;;;
2022/05/18 00:27:03;;;;;;;0.2;0.2;;;;;;;20.3;100.0;101590;;;;
2022/05/18 00:28:00;;;;;;;0.2;0.2;;;;;;;20.3;100.0;101590;;;;
2022/05/18 00:29:00;;;;;;;0.2;0.2;;;;;;;20.2;100.0;101590;;;;
2022/05/18 00:30:00;;;;;;;0.2;0.2;;;;;;;20.2;100.0;101590;;;;
2022/05/18 00:31:00;;;;;;;0.2;0.2;;;;;;;20.2;100.0;101600;;;;
2022/05/18 00:32:00;;;;;;;0.2;0.2;;;;;;;20.2;100.0;101600;;;;
2022/05/18 00:33:04;;;;;;;0.2;0.2;;;;;;;20.2;100.0;101590;;;;
2022/05/18 00:34:00;;;;;;;0.2;0.2;;;;;;;20.2;100.0;101590;;;;
2022/05/18 00:35:05;;;;;;;0.2;0.2;;;;;;;20.1;100.0;101600;;;;
2022/05/18 00:36:00;;;;;;;0.2;0.2;;;;;;;20.1;100.0;101600;;;;
2022/05/18 00:37:00;;;;;;;0.2;0.2;;;;;;;20.1;100.0;101600;;;;
2022/05/18 00:38:00;;;;;;;0.2;0.2;;;;;;;20.1;100.0;101600;;;;
2022/05/18 00:39:00;;;;;;;0.2;0.2;;;;;;;20.0;100.0;101590;;;;
2022/05/18 00:40:00;;;;;;;0.2;0.2;;;;;;;20.0;100.0;101590;;;;
2022/05/18 00:41:00;;;;;;;0.2;0.2;;;;;;;20.1;100.0;101590;;;;
2022/05/18 00:42:00;;;;;;;0.2;0.2;;;;;;;20.1;100.0;101590;;;;
2022/05/18 00:43:00;;;;;;;0.1;0.1;;;;;;;20.1;100.0;101590;;;;
2022/05/18 00:44:00;;;;;;;0.1;0.1;;;;;;;20.1;100.0;101590;;;;
2022/05/18 00:45:00;;;;;;;0.1;0.1;;;;;;;20.0;100.0;101590;;;;
2022/05/18 00:46:01;;;;;;;0.1;0.1;;;;;;;20.0;100.0;101590;;;;
2022/05/18 00:47:10;;;;;;;0.1;0.1;;;;;;;20.0;100.0;101590;;;;
2022/05/18 00:48:00;;;;;;;0.1;0.1;;;;;;;20.0;100.0;101590;;;;
2022/05/18 00:49:01;;;;;;;0.1;0.1;;;;;;;20.0;100.0;101590;;;;
2022/05/18 00:50:02;;;;;;;0.1;0.1;;;;;;;20.0;100.0;101590;;;;
2022/05/18 00:51:02;;;;;;;0.1;0.1;;;;;;;19.9;100.0;101590;;;;
2022/05/18 00:52:00;;;;;;;0.1;0.1;;;;;;;19.9;100.0;101590;;;;
2022/05/18 00:53:10;;;;;;;0.1;0.1;;;;;;;19.9;100.0;101590;;;;
2022/05/18 00:54:04;;;;;;;0.1;0.1;;;;;;;19.9;100.0;101590;;;;
2022/05/18 00:55:00;;;;;;;0.1;0.1;;;;;;;19.8;100.0;101590;;;;
2022/05/18 00:56:01;;;;;;;0.1;0.1;;;;;;;19.8;100.0;101590;;;;
2022/05/18 00:57:09;;;;;;;0.1;0.1;;;;;;;19.8;100.0;101590;;;;
2022/05/18 00:58:07;;;;;;;0.1;0.1;;;;;;;19.8;100.0;101590;;;;
2022/05/18 00:59:03;;;;;;;0.1;0.1;;;;;;;19.8;100.0;101590;;;;
2022/05/18 01:00:04;;;;;;;0.1;0.1;;;;;;;19.8;100.0;101590;;;;
2022/05/18 01:01:00;;;;;;;0.1;0.1;;;;;;;19.8;100.0;101590;;;;
2022/05/18 01:02:02;;;;;;;0.1;0.1;;;;;;;19.8;100.0;101590;;;;
2022/05/18 01:03:04;;;;;;;0.2;0.2;;;;;;;19.8;100.0;101600;;;;
2022/05/18 01:04:03;;;;;;;0.2;0.2;;;;;;;19.8;100.0;101600;;;;
2022/05/18 01:05:01;;;;;;;0.2;0.2;;;;;;;19.7;100.0;101600;;;;
2022/05/18 01:06:04;;;;;;;0.2;0.2;;;;;;;19.7;100.0;101600;;;;
2022/05/18 01:07:03;;;;;;;0.2;0.2;;;;;;;19.7;100.0;101600;;;;
2022/05/18 01:08:00;;;;;;;0.2;0.2;;;;;;;19.7;100.0;101600;;;;
2022/05/18 01:09:09;;;;;;;0.2;0.2;;;;;;;19.6;100.0;101600;;;;
2022/05/18 01:10:00;;;;;;;0.2;0.2;;;;;;;19.6;100.0;101600;;;;
2022/05/18 01:11:00;;;;;;;0.2;0.2;;;;;;;19.6;100.0;101600;;;;
2022/05/18 01:12:00;;;;;;;0.2;0.2;;;;;;;19.6;100.0;101600;;;;
2022/05/18 01:13:02;;;;;;;0.2;0.2;;;;;;;19.6;100.0;101600;;;;
2022/05/18 01:14:01;;;;;;;0.2;0.2;;;;;;;19.6;100.0;101600;;;;
2022/05/18 01:15:05;;;;;;;0.2;0.2;;;;;;;19.5;100.0;101600;;;;
2022/05/18 01:16:00;;;;;;;0.2;0.2;;;;;;;19.5;100.0;101600;;;;
2022/05/18 01:17:00;;;;;;;0.2;0.2;;;;;;;19.5;100.0;101600;;;;
2022/05/18 01:18:01;;;;;;;0.2;0.2;;;;;;;19.5;100.0;101600;;;;
2022/05/18 01:19:00;;;;;;;0.2;0.2;;;;;;;19.5;100.0;101600;;;;
2022/05/18 01:20:01;;;;;;;0.2;0.2;;;;;;;19.5;100.0;101600;;;;
2022/05/18 01:21:00;;;;;;;0.2;0.2;;;;;;;19.5;100.0;101610;;;;
2022/05/18 01:22:06;;;;;;;0.2;0.2;;;;;;;19.5;100.0;101610;;;;
2022/05/18 01:23:10;;;;;;;0.4;0.4;;;;;;;19.6;100.0;101600;;;;
2022/05/18 01:24:04;;;;;;;0.4;0.4;;;;;;;19.6;100.0;101600;;;;
2022/05/18 01:25:00;;;;;;;0.4;0.4;;;;;;;19.5;100.0;101600;;;;
2022/05/18 01:26:01;;;;;;;0.4;0.4;;;;;;;19.5;100.0;101600;;;;
2022/05/18 01:27:01;;;;;;;0.4;0.4;;;;;;;19.4;100.0;101600;;;;
2022/05/18 01:28:01;;;;;;;0.4;0.4;;;;;;;19.4;100.0;101600;;;;
2022/05/18 01:29:01;;;;;;;0.4;0.4;;;;;;;19.4;100.0;101600;;;;
2022/05/18 01:30:00;;;;;;;0.4;0.4;;;;;;;19.4;100.0;101600;;;;
2022/05/18 01:31:03;;;;;;;0.4;0.4;;;;;;;19.3;100.0;101600;;;;
2022/05/18 01:32:02;;;;;;;0.4;0.4;;;;;;;19.3;100.0;101600;;;;
2022/05/18 01:33:03;;;;;;;0.4;0.4;;;;;;;19.4;100.0;101600;;;;
2022/05/18 01:34:00;;;;;;;0.4;0.4;;;;;;;19.4;100.0;101600;;;;
2022/05/18 01:35:00;;;;;;;0.4;0.4;;;;;;;19.3;100.0;101600;;;;
2022/05/18 01:36:00;;;;;;;0.4;0.4;;;;;;;19.3;100.0;101600;;;;
2022/05/18 01:37:00;;;;;;;0.4;0.4;;;;;;;19.3;100.0;101600;;;;
2022/05/18 01:38:00;;;;;;;0.4;0.4;;;;;;;19.3;100.0;101600;;;;
2022/05/18 01:39:00;;;;;;;0.4;0.4;;;;;;;19.3;100.0;101600;;;;
2022/05/18 01:40:03;;;;;;;0.4;0.4;;;;;;;19.3;100.0;101600;;;;
2022/05/18 01:41:10;;;;;;;0.4;0.4;;;;;;;19.3;100.0;101600;;;;
2022/05/18 01:42:08;;;;;;;0.4;0.4;;;;;;;19.3;100.0;101600;;;;
2022/05/18 01:43:07;;;;;;;0.8;0.8;;;;;;;19.3;100.0;101600;;;;
2022/05/18 01:44:01;;;;;;;0.8;0.8;;;;;;;19.3;100.0;101600;;;;
2022/05/18 01:45:00;;;;;;;0.8;0.8;;;;;;;19.2;100.0;101600;;;;
2022/05/18 01:46:02;;;;;;;0.8;0.8;;;;;;;19.2;100.0;101600;;;;
2022/05/18 01:47:00;;;;;;;0.8;0.8;;;;;;;19.2;100.0;101600;;;;
2022/05/18 01:48:10;;;;;;;0.8;0.8;;;;;;;19.2;100.0;101600;;;;
2022/05/18 01:49:00;;;;;;;0.8;0.8;;;;;;;19.2;100.0;101600;;;;
2022/05/18 01:50:01;;;;;;;0.8;0.8;;;;;;;19.2;100.0;101600;;;;
2022/05/18 01:51:01;;;;;;;0.8;0.8;;;;;;;19.1;100.0;101600;;;;
2022/05/18 01:52:00;;;;;;;0.8;0.8;;;;;;;19.1;100.0;101600;;;;
2022/05/18 01:53:00;;;;;;;0.8;0.8;;;;;;;19.1;100.0;101610;;;;
2022/05/18 01:54:00;;;;;;;0.8;0.8;;;;;;;19.1;100.0;101610;;;;
2022/05/18 01:55:00;;;;;;;0.8;0.8;;;;;;;19.1;100.0;101600;;;;
2022/05/18 01:56:00;;;;;;;0.8;0.8;;;;;;;19.1;100.0;101600;;;;
2022/05/18 01:57:00;;;;;;;0.8;0.8;;;;;;;19.1;100.0;101600;;;;
2022/05/18 01:58:00;;;;;;;0.8;0.8;;;;;;;19.1;100.0;101600;;;;
2022/05/18 01:59:00;;;;;;;0.8;0.8;;;;;;;19.1;100.0;101600;;;;
2022/05/18 02:00:00;;;;;;;0.8;0.8;;;;;;;19.1;100.0;101600;;;;
2022/05/18 02:01:01;;;;;;;0.8;0.8;;;;;;;19.0;100.0;101600;;;;
2022/05/18 02:02:00;;;;;;;0.8;0.8;;;;;;;19.0;100.0;101600;;;;
2022/05/18 02:03:00;;;;;;;0.6;0.6;;;;;;;19.0;100.0;101600;;;;
2022/05/18 02:04:00;;;;;;;0.6;0.6;;;;;;;19.0;100.0;101600;;;;
2022/05/18 02:05:00;;;;;;;0.6;0.6;;;;;;;19.0;100.0;101600;;;;
2022/05/18 02:06:00;;;;;;;0.6;0.6;;;;;;;19.0;100.0;101600;;;;
2022/05/18 02:07:01;;;;;;;0.6;0.6;;;;;;;19.0;100.0;101600;;;;
2022/05/18 02:08:00;;;;;;;0.6;0.6;;;;;;;19.0;100.0;101600;;;;
2022/05/18 02:09:00;;;;;;;0.6;0.6;;;;;;;19.0;100.0;101600;;;;
2022/05/18 02:10:00;;;;;;;0.6;0.6;;;;;;;19.0;100.0;101600;;;;
2022/05/18 02:11:00;;;;;;;0.6;0.6;;;;;;;18.9;100.0;101610;;;;
2022/05/18 02:12:00;;;;;;;0.6;0.6;;;;;;;18.9;100.0;101610;;;;
2022/05/18 02:13:00;;;;;;;0.6;0.6;;;;;;;18.9;100.0;101600;;;;
2022/05/18 02:14:00;;;;;;;0.6;0.6;;;;;;;18.9;100.0;101600;;;;
2022/05/18 02:15:00;;;;;;;0.6;0.6;;;;;;;18.9;100.0;101600;;;;
2022/05/18 02:16:01;;;;;;;0.6;0.6;;;;;;;18.9;100.0;101600;;;;
2022/05/18 02:17:00;;;;;;;0.6;0.6;;;;;;;18.9;100.0;101600;;;;
2022/05/18 02:18:00;;;;;;;0.6;0.6;;;;;;;18.9;100.0;101600;;;;
2022/05/18 02:19:00;;;;;;;0.6;0.6;;;;;;;18.8;100.0;101600;;;;
2022/05/18 02:20:00;;;;;;;0.6;0.6;;;;;;;18.8;100.0;101600;;;;
2022/05/18 02:21:04;;;;;;;0.6;0.6;;;;;;;18.8;100.0;101600;;;;
2022/05/18 02:22:00;;;;;;;0.6;0.6;;;;;;;18.8;100.0;101600;;;;
2022/05/18 02:23:00;;;;;;;0.3;0.3;;;;;;;18.9;100.0;101600;;;;
2022/05/18 02:24:00;;;;;;;0.3;0.3;;;;;;;18.9;100.0;101600;;;;
2022/05/18 02:25:00;;;;;;;0.3;0.3;;;;;;;18.8;100.0;101600;;;;
2022/05/18 02:26:08;;;;;;;0.3;0.3;;;;;;;18.8;100.0;101600;;;;
2022/05/18 02:27:00;;;;;;;0.3;0.3;;;;;;;18.7;100.0;101600;;;;
2022/05/18 02:28:00;;;;;;;0.3;0.3;;;;;;;18.7;100.0;101600;;;;
2022/05/18 02:29:00;;;;;;;0.3;0.3;;;;;;;18.7;100.0;101600;;;;
2022/05/18 02:30:00;;;;;;;0.3;0.3;;;;;;;18.7;100.0;101600;;;;
2022/05/18 02:31:00;;;;;;;0.3;0.3;;;;;;;18.7;100.0;101590;;;;
2022/05/18 02:32:00;;;;;;;0.3;0.3;;;;;;;18.7;100.0;101590;;;;
2022/05/18 02:33:00;;;;;;;0.3;0.3;;;;;;;18.7;100.0;101590;;;;
2022/05/18 02:34:00;;;;;;;0.3;0.3;;;;;;;18.7;100.0;101590;;;;
2022/05/18 02:35:00;;;;;;;0.3;0.3;;;;;;;18.7;100.0;101590;;;;
2022/05/18 02:36:00;;;;;;;0.3;0.3;;;;;;;18.7;100.0;101590;;;;
2022/05/18 02:37:00;;;;;;;0.3;0.3;;;;;;;18.7;100.0;101590;;;;
2022/05/18 02:38:00;;;;;;;0.3;0.3;;;;;;;18.7;100.0;101590;;;;
2022/05/18 02:39:00;;;;;;;0.3;0.3;;;;;;;18.7;100.0;101590;;;;
2022/05/18 02:40:00;;;;;;;0.3;0.3;;;;;;;18.7;100.0;101590;;;;
2022/05/18 02:41:00;;;;;;;0.3;0.3;;;;;;;18.6;100.0;101590;;;;
2022/05/18 02:42:00;;;;;;;0.3;0.3;;;;;;;18.6;100.0;101590;;;;
2022/05/18 02:43:00;;;;;;;0.2;0.2;;;;;;;18.6;100.0;101590;;;;
2022/05/18 02:44:00;;;;;;;0.2;0.2;;;;;;;18.6;100.0;101590;;;;
2022/05/18 02:45:00;;;;;;;0.2;0.2;;;;;;;18.6;100.0;101590;;;;
2022/05/18 02:46:03;;;;;;;0.2;0.2;;;;;;;18.6;100.0;101590;;;;
2022/05/18 02:47:00;;;;;;;0.2;0.2;;;;;;;18.6;100.0;101590;;;;
2022/05/18 02:48:00;;;;;;;0.2;0.2;;;;;;;18.6;100.0;101590;;;;
2022/05/18 02:49:00;;;;;;;0.2;0.2;;;;;;;18.5;100.0;101590;;;;
2022/05/18 02:50:00;;;;;;;0.2;0.2;;;;;;;18.5;100.0;101590;;;;
2022/05/18 02:51:00;;;;;;;0.2;0.2;;;;;;;18.6;100.0;101590;;;;
2022/05/18 02:52:00;;;;;;;0.2;0.2;;;;;;;18.6;100.0;101590;;;;
2022/05/18 02:53:00;;;;;;;0.2;0.2;;;;;;;18.5;100.0;101590;;;;
2022/05/18 02:54:01;;;;;;;0.2;0.2;;;;;;;18.5;100.0;101590;;;;
2022/05/18 02:56:07;;;;;;;0.2;0.2;;;;;;;18.5;100.0;101590;;;;
2022/05/18 02:57:00;;;;;;;0.2;0.2;;;;;;;18.5;100.0;101590;;;;
2022/05/18 02:58:00;;;;;;;0.2;0.2;;;;;;;18.5;100.0;101590;;;;
2022/05/18 02:59:00;;;;;;;0.2;0.2;;;;;;;18.5;100.0;101590;;;;
2022/05/18 03:00:00;;;;;;;0.2;0.2;;;;;;;18.5;100.0;101590;;;;
2022/05/18 03:01:01;;;;;;;0.2;0.2;;;;;;;18.5;100.0;101590;;;;
2022/05/18 03:02:00;;;;;;;0.2;0.2;;;;;;;18.5;100.0;101590;;;;
2022/05/18 03:03:00;;;;;;;0.2;0.2;;;;;;;18.5;100.0;101590;;;;
2022/05/18 03:04:00;;;;;;;0.2;0.2;;;;;;;18.5;100.0;101590;;;;
2022/05/18 03:05:00;;;;;;;0.2;0.2;;;;;;;18.5;100.0;101600;;;;
2022/05/18 03:06:03;;;;;;;0.2;0.2;;;;;;;18.5;100.0;101600;;;;
2022/05/18 03:07:00;;;;;;;0.2;0.2;;;;;;;18.5;100.0;101600;;;;
2022/05/18 03:08:00;;;;;;;0.2;0.2;;;;;;;18.5;100.0;101600;;;;
2022/05/18 03:09:00;;;;;;;0.2;0.2;;;;;;;18.5;100.0;101600;;;;
2022/05/18 03:10:00;;;;;;;0.2;0.2;;;;;;;18.5;100.0;101600;;;;
2022/05/18 03:11:00;;;;;;;0.2;0.2;;;;;;;18.5;100.0;101600;;;;
2022/05/18 03:12:00;;;;;;;0.2;0.2;;;;;;;18.5;100.0;101600;;;;
2022/05/18 03:13:00;;;;;;;0.2;0.2;;;;;;;18.5;100.0;101600;;;;
2022/05/18 03:14:00;;;;;;;0.2;0.2;;;;;;;18.5;100.0;101600;;;;
2022/05/18 03:15:00;;;;;;;0.2;0.2;;;;;;;18.4;100.0;101600;;;;
2022/05/18 03:16:00;;;;;;;0.2;0.2;;;;;;;18.4;100.0;101600;;;;
2022/05/18 03:17:00;;;;;;;0.2;0.2;;;;;;;18.5;100.0;101600;;;;
2022/05/18 03:18:00;;;;;;;0.2;0.2;;;;;;;18.5;100.0;101600;;;;
2022/05/18 03:19:00;;;;;;;0.2;0.2;;;;;;;18.4;100.0;101600;;;;
2022/05/18 03:20:00;;;;;;;0.2;0.2;;;;;;;18.4;100.0;101600;;;;
2022/05/18 03:24:00;;;;;;;0.6;0.6;;;;;;;18.4;100.0;101600;;;;
2022/05/18 03:25:00;;;;;;;0.6;0.6;;;;;;;18.4;100.0;101600;;;;
2022/05/18 03:26:01;;;;;;;0.6;0.6;;;;;;;18.4;100.0;101600;;;;
2022/05/18 03:27:00;;;;;;;0.6;0.6;;;;;;;18.3;100.0;101600;;;;
2022/05/18 03:28:00;;;;;;;0.6;0.6;;;;;;;18.3;100.0;101600;;;;
2022/05/18 03:29:00;;;;;;;0.6;0.6;;;;;;;18.3;100.0;101610;;;;
2022/05/18 03:30:00;;;;;;;0.6;0.6;;;;;;;18.3;100.0;101610;;;;
2022/05/18 03:31:00;;;;;;;0.6;0.6;;;;;;;18.3;100.0;101610;;;;
2022/05/18 03:32:00;;;;;;;0.6;0.6;;;;;;;18.3;100.0;101610;;;;
2022/05/18 03:33:00;;;;;;;0.6;0.6;;;;;;;18.3;100.0;101610;;;;
2022/05/18 03:34:00;;;;;;;0.6;0.6;;;;;;;18.3;100.0;101610;;;;
2022/05/18 03:35:00;;;;;;;0.6;0.6;;;;;;;18.3;100.0;101620;;;;
2022/05/18 03:36:00;;;;;;;0.6;0.6;;;;;;;18.3;100.0;101620;;;;
2022/05/18 03:37:00;;;;;;;0.6;0.6;;;;;;;18.3;100.0;101620;;;;
2022/05/18 03:38:00;;;;;;;0.6;0.6;;;;;;;18.3;100.0;101620;;;;
2022/05/18 03:39:01;;;;;;;0.6;0.6;;;;;;;18.3;100.0;101620;;;;
2022/05/18 03:40:00;;;;;;;0.6;0.6;;;;;;;18.3;100.0;101620;;;;
2022/05/18 03:41:00;;;;;;;0.6;0.6;;;;;;;18.3;100.0;101630;;;;
2022/05/18 03:42:00;;;;;;;0.6;0.6;;;;;;;18.3;100.0;101630;;;;
2022/05/18 03:43:00;;;;;;;0.3;0.3;;;;;;;18.3;100.0;101630;;;;
2022/05/18 03:44:01;;;;;;;0.3;0.3;;;;;;;18.3;100.0;101630;;;;
2022/05/18 03:45:00;;;;;;;0.3;0.3;;;;;;;18.2;100.0;101630;;;;
2022/05/18 03:46:00;;;;;;;0.3;0.3;;;;;;;18.2;100.0;101630;;;;
2022/05/18 03:47:00;;;;;;;0.3;0.3;;;;;;;18.2;100.0;101640;;;;
2022/05/18 03:48:00;;;;;;;0.3;0.3;;;;;;;18.2;100.0;101640;;;;
2022/05/18 03:49:00;;;;;;;0.3;0.3;;;;;;;18.2;100.0;101630;;;;
2022/05/18 03:50:00;;;;;;;0.3;0.3;;;;;;;18.2;100.0;101630;;;;
2022/05/18 03:51:00;;;;;;;0.3;0.3;;;;;;;18.2;100.0;101640;;;;
2022/05/18 03:52:00;;;;;;;0.3;0.3;;;;;;;18.2;100.0;101640;;;;
2022/05/18 03:53:00;;;;;;;0.3;0.3;;;;;;;18.1;100.0;101640;;;;
2022/05/18 03:54:00;;;;;;;0.3;0.3;;;;;;;18.1;100.0;101640;;;;
2022/05/18 03:55:00;;;;;;;0.3;0.3;;;;;;;18.1;100.0;101650;;;;
2022/05/18 03:56:01;;;;;;;0.3;0.3;;;;;;;18.1;100.0;101650;;;;
2022/05/18 03:57:00;;;;;;;0.3;0.3;;;;;;;18.2;100.0;101650;;;;
2022/05/18 03:58:00;;;;;;;0.3;0.3;;;;;;;18.2;100.0;101650;;;;
2022/05/18 03:59:00;;;;;;;0.3;0.3;;;;;;;18.1;100.0;101640;;;;
2022/05/18 04:00:00;;;;;;;0.3;0.3;;;;;;;18.1;100.0;101640;;;;
2022/05/18 04:01:00;;;;;;;0.3;0.3;;;;;;;18.0;100.0;101640;;;;
2022/05/18 04:02:00;;;;;;;0.3;0.3;;;;;;;18.0;100.0;101640;;;;
2022/05/18 04:03:00;;;;;;;0.3;0.3;;;;;;;18.1;100.0;101640;;;;
2022/05/18 04:04:00;;;;;;;0.3;0.3;;;;;;;18.1;100.0;101640;;;;
2022/05/18 04:05:00;;;;;;;0.3;0.3;;;;;;;18.2;100.0;101650;;;;
2022/05/18 04:06:00;;;;;;;0.3;0.3;;;;;;;18.2;100.0;101650;;;;
2022/05/18 04:07:00;;;;;;;0.3;0.3;;;;;;;18.2;100.0;101640;;;;
2022/05/18 04:08:00;;;;;;;0.3;0.3;;;;;;;18.2;100.0;101640;;;;
2022/05/18 04:09:00;;;;;;;0.3;0.3;;;;;;;18.2;100.0;101640;;;;
2022/05/18 04:10:00;;;;;;;0.3;0.3;;;;;;;18.2;100.0;101640;;;;
2022/05/18 04:11:00;;;;;;;0.3;0.3;;;;;;;18.3;100.0;101640;;;;
2022/05/18 04:12:01;;;;;;;0.3;0.3;;;;;;;18.3;100.0;101640;;;;
2022/05/18 04:13:00;;;;;;;0.3;0.3;;;;;;;18.3;100.0;101650;;;;
2022/05/18 04:14:00;;;;;;;0.3;0.3;;;;;;;18.3;100.0;101650;;;;
2022/05/18 04:15:00;;;;;;;0.3;0.3;;;;;;;18.2;100.0;101650;;;;
2022/05/18 04:16:00;;;;;;;0.3;0.3;;;;;;;18.2;100.0;101650;;;;
2022/05/18 04:17:00;;;;;;;0.3;0.3;;;;;;;18.3;100.0;101650;;;;
2022/05/18 04:18:00;;;;;;;0.3;0.3;;;;;;;18.3;100.0;101650;;;;
2022/05/18 04:19:00;;;;;;;0.3;0.3;;;;;;;18.2;100.0;101650;;;;
2022/05/18 04:20:00;;;;;;;0.3;0.3;;;;;;;18.2;100.0;101650;;;;
2022/05/18 04:21:00;;;;;;;0.3;0.3;;;;;;;18.1;100.0;101650;;;;
2022/05/18 04:22:00;;;;;;;0.3;0.3;;;;;;;18.1;100.0;101650;;;;
2022/05/18 04:23:00;;;;;;;0.5;0.5;;;;;;;18.2;100.0;101660;;;;
2022/05/18 04:24:00;;;;;;;0.5;0.5;;;;;;;18.2;100.0;101660;;;;
2022/05/18 04:25:01;;;;;;;0.5;0.5;;;;;;;18.2;100.0;101660;;;;
2022/05/18 04:26:00;;;;;;;0.5;0.5;;;;;;;18.2;100.0;101660;;;;
2022/05/18 04:27:00;;;;;;;0.5;0.5;;;;;;;18.3;100.0;101650;;;;
2022/05/18 04:28:00;;;;;;;0.5;0.5;;;;;;;18.3;100.0;101650;;;;
2022/05/18 04:29:00;;;;;;;0.5;0.5;;;;;;;18.1;100.0;101660;;;;
2022/05/18 04:30:00;;;;;;;0.5;0.5;;;;;;;18.1;100.0;101660;;;;
2022/05/18 04:31:01;;;;;;;0.5;0.5;;;;;;;18.1;100.0;101660;;;;
2022/05/18 04:32:00;;;;;;;0.5;0.5;;;;;;;18.1;100.0;101660;;;;
2022/05/18 04:33:00;;;;;;;0.5;0.5;;;;;;;18.2;100.0;101660;;;;
2022/05/18 04:34:00;;;;;;;0.5;0.5;;;;;;;18.2;100.0;101660;;;;
2022/05/18 04:35:00;;;;;;;0.5;0.5;;;;;;;18.2;100.0;101650;;;;
2022/05/18 04:36:02;;;;;;;0.5;0.5;;;;;;;18.2;100.0;101650;;;;
2022/05/18 04:37:00;;;;;;;0.5;0.5;;;;;;;18.2;100.0;101650;;;;
2022/05/18 04:38:00;;;;;;;0.5;0.5;;;;;;;18.2;100.0;101650;;;;
2022/05/18 04:39:00;;;;;;;0.5;0.5;;;;;;;18.2;100.0;101650;;;;
2022/05/18 04:40:00;;;;;;;0.5;0.5;;;;;;;18.2;100.0;101650;;;;
2022/05/18 04:41:00;;;;;;;0.5;0.5;;;;;;;18.3;100.0;101650;;;;
2022/05/18 04:42:00;;;;;;;0.5;0.5;;;;;;;18.3;100.0;101650;;;;
2022/05/18 04:43:00;;;;;;;0.3;0.3;;;;;;;18.4;100.0;101650;;;;
2022/05/18 04:44:00;;;;;;;0.3;0.3;;;;;;;18.4;100.0;101650;;;;
2022/05/18 04:45:00;;;;;;;0.3;0.3;;;;;;;18.5;100.0;101660;;;;
2022/05/18 04:46:00;;;;;;;0.3;0.3;;;;;;;18.5;100.0;101660;;;;
2022/05/18 04:47:00;;;;;;;0.3;0.3;;;;;;;18.5;100.0;101660;;;;
2022/05/18 04:48:00;;;;;;;0.3;0.3;;;;;;;18.5;100.0;101660;;;;
2022/05/18 04:49:00;;;;;;;0.3;0.3;;;;;;;18.5;100.0;101660;;;;
2022/05/18 04:50:00;;;;;;;0.3;0.3;;;;;;;18.5;100.0;101660;;;;
2022/05/18 04:51:04;;;;;;;0.3;0.3;;;;;;;18.6;100.0;101660;;;;
2022/05/18 04:52:01;;;;;;;0.3;0.3;;;;;;;18.6;100.0;101660;;;;
2022/05/18 04:53:00;;;;;;;0.3;0.3;;;;;;;18.6;100.0;101660;;;;
2022/05/18 04:54:00;;;;;;;0.3;0.3;;;;;;;18.6;100.0;101660;;;;
2022/05/18 04:55:00;;;;;;;0.3;0.3;;;;;;;18.6;100.0;101660;;;;
2022/05/18 04:56:00;;;;;;;0.3;0.3;;;;;;;18.6;100.0;101660;;;;
2022/05/18 04:57:00;;;;;;;0.3;0.3;;;;;;;18.7;100.0;101660;;;;
2022/05/18 04:58:01;;;;;;;0.3;0.3;;;;;;;18.7;100.0;101660;;;;
2022/05/18 04:59:00;;;;;;;0.3;0.3;;;;;;;18.7;100.0;101660;;;;
2022/05/18 05:00:00;;;;;;;0.3;0.3;;;;;;;18.7;100.0;101660;;;;
2022/05/18 05:01:02;;;;;;;0.3;0.3;;;;;;;18.8;100.0;101660;;;;
2022/05/18 05:02:00;;;;;;;0.3;0.3;;;;;;;18.8;100.0;101660;;;;
2022/05/18 05:03:00;;;;;;;0.5;0.5;;;;;;;18.9;100.0;101660;;;;
2022/05/18 05:04:01;;;;;;;0.5;0.5;;;;;;;18.9;100.0;101660;;;;
2022/05/18 05:05:00;;;;;;;0.5;0.5;;;;;;;19.0;100.0;101670;;;;
2022/05/18 05:06:01;;;;;;;0.5;0.5;;;;;;;19.0;100.0;101670;;;;
2022/05/18 05:07:00;;;;;;;0.5;0.5;;;;;;;19.1;100.0;101670;;;;
2022/05/18 05:08:00;;;;;;;0.5;0.5;;;;;;;19.1;100.0;101670;;;;
2022/05/18 05:09:00;;;;;;;0.5;0.5;;;;;;;19.1;100.0;101670;;;;
2022/05/18 05:10:00;;;;;;;0.5;0.5;;;;;;;19.1;100.0;101670;;;;
2022/05/18 05:11:00;;;;;;;0.5;0.5;;;;;;;19.3;100.0;101670;;;;
2022/05/18 05:12:00;;;;;;;0.5;0.5;;;;;;;19.3;100.0;101670;;;;
2022/05/18 05:13:00;;;;;;;0.5;0.5;;;;;;;19.3;100.0;101680;;;;
2022/05/18 05:14:00;;;;;;;0.5;0.5;;;;;;;19.3;100.0;101680;;;;
2022/05/18 05:15:00;;;;;;;0.5;0.5;;;;;;;19.5;100.0;101690;;;;
2022/05/18 05:16:01;;;;;;;0.5;0.5;;;;;;;19.5;100.0;101690;;;;
2022/05/18 05:17:00;;;;;;;0.5;0.5;;;;;;;19.6;100.0;101690;;;;
2022/05/18 05:18:00;;;;;;;0.5;0.5;;;;;;;19.6;100.0;101690;;;;
2022/05/18 05:19:00;;;;;;;0.5;0.5;;;;;;;19.8;100.0;101690;;;;
2022/05/18 05:20:00;;;;;;;0.5;0.5;;;;;;;19.8;100.0;101690;;;;
2022/05/18 05:21:00;;;;;;;0.5;0.5;;;;;;;19.8;100.0;101700;;;;
2022/05/18 05:22:00;;;;;;;0.5;0.5;;;;;;;19.8;100.0;101700;;;;
2022/05/18 05:23:00;;;;;;;0.2;0.2;;;;;;;19.9;100.0;101700;;;;
2022/05/18 05:24:00;;;;;;;0.2;0.2;;;;;;;19.9;100.0;101700;;;;
2022/05/18 05:25:00;;;;;;;0.2;0.2;;;;;;;19.9;100.0;101700;;;;
2022/05/18 05:26:00;;;;;;;0.2;0.2;;;;;;;19.9;100.0;101700;;;;
2022/05/18 05:27:00;;;;;;;0.2;0.2;;;;;;;20.0;100.0;101700;;;;
2022/05/18 05:28:00;;;;;;;0.2;0.2;;;;;;;20.0;100.0;101700;;;;
2022/05/18 05:29:00;;;;;;;0.2;0.2;;;;;;;20.0;100.0;101700;;;;
2022/05/18 05:30:00;;;;;;;0.2;0.2;;;;;;;20.0;100.0;101700;;;;
2022/05/18 05:31:01;;;;;;;0.2;0.2;;;;;;;20.0;100.0;101700;;;;
2022/05/18 05:32:08;;;;;;;0.2;0.2;;;;;;;20.0;100.0;101700;;;;
2022/05/18 05:33:00;;;;;;;0.2;0.2;;;;;;;19.9;100.0;101700;;;;
2022/05/18 05:34:00;;;;;;;0.2;0.2;;;;;;;19.9;100.0;101700;;;;
2022/05/18 05:35:00;;;;;;;0.2;0.2;;;;;;;20.0;100.0;101700;;;;
2022/05/18 05:36:00;;;;;;;0.2;0.2;;;;;;;20.0;100.0;101700;;;;
2022/05/18 05:37:00;;;;;;;0.2;0.2;;;;;;;20.1;100.0;101710;;;;
2022/05/18 05:38:00;;;;;;;0.2;0.2;;;;;;;20.1;100.0;101710;;;;
2022/05/18 05:39:00;;;;;;;0.2;0.2;;;;;;;20.2;100.0;101700;;;;
2022/05/18 05:40:00;;;;;;;0.2;0.2;;;;;;;20.2;100.0;101700;;;;
2022/05/18 05:41:01;;;;;;;0.2;0.2;;;;;;;20.3;100.0;101700;;;;
2022/05/18 05:42:00;;;;;;;0.2;0.2;;;;;;;20.3;100.0;101700;;;;
2022/05/18 05:43:04;;;;;;;0.2;0.2;;;;;;;20.3;100.0;101690;;;;
2022/05/18 05:44:00;;;;;;;0.2;0.2;;;;;;;20.3;100.0;101690;;;;
2022/05/18 05:45:00;;;;;;;0.2;0.2;;;;;;;20.5;100.0;101690;;;;
2022/05/18 05:46:02;;;;;;;0.2;0.2;;;;;;;20.5;100.0;101690;;;;
2022/05/18 05:47:03;;;;;;;0.2;0.2;;;;;;;20.6;100.0;101690;;;;
2022/05/18 05:48:01;;;;;;;0.2;0.2;;;;;;;20.6;100.0;101690;;;;
2022/05/18 05:49:00;;;;;;;0.2;0.2;;;;;;;20.7;100.0;101690;;;;
2022/05/18 05:50:00;;;;;;;0.2;0.2;;;;;;;20.7;100.0;101690;;;;
2022/05/18 05:51:00;;;;;;;0.2;0.2;;;;;;;20.9;100.0;101690;;;;
2022/05/18 05:52:00;;;;;;;0.2;0.2;;;;;;;20.9;100.0;101690;;;;
2022/05/18 05:53:00;;;;;;;0.2;0.2;;;;;;;20.9;100.0;101700;;;;
2022/05/18 05:54:00;;;;;;;0.2;0.2;;;;;;;20.9;100.0;101700;;;;
2022/05/18 05:55:00;;;;;;;0.2;0.2;;;;;;;21.1;100.0;101700;;;;
2022/05/18 05:56:00;;;;;;;0.2;0.2;;;;;;;21.1;100.0;101700;;;;
2022/05/18 05:57:03;;;;;;;0.2;0.2;;;;;;;21.2;100.0;101700;;;;
2022/05/18 05:58:00;;;;;;;0.2;0.2;;;;;;;21.2;100.0;101700;;;;
2022/05/18 05:59:00;;;;;;;0.2;0.2;;;;;;;21.3;100.0;101710;;;;
2022/05/18 06:00:02;;;;;;;0.2;0.2;;;;;;;21.3;100.0;101710;;;;
2022/05/18 06:01:00;;;;;;;0.2;0.2;;;;;;;21.3;100.0;101710;;;;
2022/05/18 06:02:02;;;;;;;0.2;0.2;;;;;;;21.3;100.0;101710;;;;
2022/05/18 06:03:00;;;;;;;0.6;0.6;;;;;;;21.3;100.0;101710;;;;
2022/05/18 06:04:00;;;;;;;0.6;0.6;;;;;;;21.3;100.0;101710;;;;
2022/05/18 06:05:03;;;;;;;0.6;0.6;;;;;;;21.4;100.0;101710;;;;
2022/05/18 06:06:00;;;;;;;0.6;0.6;;;;;;;21.4;100.0;101710;;;;
2022/05/18 06:07:00;;;;;;;0.6;0.6;;;;;;;21.3;100.0;101710;;;;
2022/05/18 06:08:00;;;;;;;0.6;0.6;;;;;;;21.3;100.0;101710;;;;
2022/05/18 06:09:00;;;;;;;0.6;0.6;;;;;;;21.3;100.0;101710;;;;
2022/05/18 06:10:00;;;;;;;0.6;0.6;;;;;;;21.3;100.0;101710;;;;
2022/05/18 06:11:00;;;;;;;0.6;0.6;;;;;;;21.3;100.0;101720;;;;
2022/05/18 06:12:00;;;;;;;0.6;0.6;;;;;;;21.3;100.0;101720;;;;
2022/05/18 06:13:08;;;;;;;0.6;0.6;;;;;;;21.3;100.0;101720;;;;
2022/05/18 06:14:00;;;;;;;0.6;0.6;;;;;;;21.3;100.0;101720;;;;
2022/05/18 06:15:00;;;;;;;0.6;0.6;;;;;;;21.3;100.0;101720;;;;
2022/05/18 06:16:00;;;;;;;0.6;0.6;;;;;;;21.3;100.0;101720;;;;
2022/05/18 06:17:00;;;;;;;0.6;0.6;;;;;;;21.5;100.0;101720;;;;
2022/05/18 06:18:00;;;;;;;0.6;0.6;;;;;;;21.5;100.0;101720;;;;
2022/05/18 06:19:01;;;;;;;0.6;0.6;;;;;;;21.4;100.0;101720;;;;
2022/05/18 06:20:00;;;;;;;0.6;0.6;;;;;;;21.4;100.0;101720;;;;
2022/05/18 06:21:00;;;;;;;0.6;0.6;;;;;;;21.5;100.0;101720;;;;
2022/05/18 06:22:00;;;;;;;0.6;0.6;;;;;;;21.5;100.0;101720;;;;
2022/05/18 06:23:02;;;;;;;0.5;0.5;;;;;;;21.6;100.0;101720;;;;
2022/05/18 06:24:00;;;;;;;0.5;0.5;;;;;;;21.6;100.0;101720;;;;
2022/05/18 06:25:00;;;;;;;0.5;0.5;;;;;;;21.8;100.0;101720;;;;
2022/05/18 06:26:00;;;;;;;0.5;0.5;;;;;;;21.8;100.0;101720;;;;